sensor_id;sensor_type;location;lat;lon;timestamp;P1;durP1;ratioP1;P2;durP2;ratioP2
10114;SDS011;5097;43.260;27.812;2023-08-06T00:00:33;20.63;;;16.05;;
10114;SDS011;5097;43.260;27.812;2023-08-06T00:03:17;19.10;;;16.05;;
10114;SDS011;5097;43.260;27.812;2023-08-06T00:06:01;17.23;;;15.45;;
10114;SDS011;5097;43.260;27.812;2023-08-06T00:08:45;17.33;;;15.45;;
10114;SDS011;5097;43.260;27.812;2023-08-06T00:11:29;17.10;;;15.10;;
10114;SDS011;5097;43.260;27.812;2023-08-06T00:14:14;16.90;;;14.50;;
10114;SDS011;5097;43.260;27.812;2023-08-06T00:16:59;15.38;;;13.73;;
10114;SDS011;5097;43.260;27.812;2023-08-06T00:19:43;16.15;;;14.35;;
10114;SDS011;5097;43.260;27.812;2023-08-06T00:22:27;19.08;;;15.35;;
10114;SDS011;5097;43.260;27.812;2023-08-06T00:25:11;16.83;;;14.45;;
10114;SDS011;5097;43.260;27.812;2023-08-06T00:27:55;15.20;;;13.70;;
10114;SDS011;5097;43.260;27.812;2023-08-06T00:30:40;16.17;;;14.52;;
10114;SDS011;5097;43.260;27.812;2023-08-06T00:33:25;16.60;;;14.75;;
10114;SDS011;5097;43.260;27.812;2023-08-06T00:36:09;16.33;;;14.73;;
10114;SDS011;5097;43.260;27.812;2023-08-06T00:38:53;19.60;;;14.60;;
10114;SDS011;5097;43.260;27.812;2023-08-06T00:41:38;16.10;;;14.40;;
10114;SDS011;5097;43.260;27.812;2023-08-06T00:44:21;15.90;;;13.77;;
10114;SDS011;5097;43.260;27.812;2023-08-06T00:47:07;20.65;;;14.30;;
10114;SDS011;5097;43.260;27.812;2023-08-06T00:49:51;17.92;;;14.48;;
10114;SDS011;5097;43.260;27.812;2023-08-06T00:52:35;16.27;;;14.60;;
10114;SDS011;5097;43.260;27.812;2023-08-06T00:55:20;16.77;;;13.70;;
10114;SDS011;5097;43.260;27.812;2023-08-06T00:58:04;17.33;;;14.25;;
10114;SDS011;5097;43.260;27.812;2023-08-06T01:00:48;16.83;;;13.95;;
10114;SDS011;5097;43.260;27.812;2023-08-06T01:03:34;19.15;;;13.75;;
10114;SDS011;5097;43.260;27.812;2023-08-06T01:06:19;15.35;;;13.68;;
10114;SDS011;5097;43.260;27.812;2023-08-06T01:09:07;15.43;;;13.25;;
10114;SDS011;5097;43.260;27.812;2023-08-06T01:12:05;17.38;;;14.05;;
10114;SDS011;5097;43.260;27.812;2023-08-06T01:14:57;15.80;;;14.30;;
10114;SDS011;5097;43.260;27.812;2023-08-06T01:17:48;15.32;;;13.82;;
10114;SDS011;5097;43.260;27.812;2023-08-06T01:20:34;17.95;;;14.30;;
10114;SDS011;5097;43.260;27.812;2023-08-06T01:23:18;15.43;;;13.88;;
10114;SDS011;5097;43.260;27.812;2023-08-06T01:26:05;16.48;;;14.70;;
10114;SDS011;5097;43.260;27.812;2023-08-06T01:28:56;17.58;;;15.73;;
10114;SDS011;5097;43.260;27.812;2023-08-06T01:31:46;17.38;;;15.68;;
10114;SDS011;5097;43.260;27.812;2023-08-06T01:34:33;17.23;;;15.48;;
10114;SDS011;5097;43.260;27.812;2023-08-06T01:37:19;18.17;;;15.07;;
10114;SDS011;5097;43.260;27.812;2023-08-06T01:40:05;18.25;;;16.27;;
10114;SDS011;5097;43.260;27.812;2023-08-06T01:42:50;18.00;;;16.20;;
10114;SDS011;5097;43.260;27.812;2023-08-06T01:45:34;21.88;;;16.45;;
10114;SDS011;5097;43.260;27.812;2023-08-06T01:48:18;18.88;;;16.17;;
10114;SDS011;5097;43.260;27.812;2023-08-06T01:51:03;17.92;;;16.20;;
10114;SDS011;5097;43.260;27.812;2023-08-06T01:53:49;17.42;;;15.77;;
10114;SDS011;5097;43.260;27.812;2023-08-06T01:56:33;20.80;;;17.65;;
10114;SDS011;5097;43.260;27.812;2023-08-06T01:59:17;20.67;;;16.40;;
10114;SDS011;5097;43.260;27.812;2023-08-06T02:02:01;17.83;;;16.05;;
10114;SDS011;5097;43.260;27.812;2023-08-06T02:04:45;18.92;;;16.95;;
10114;SDS011;5097;43.260;27.812;2023-08-06T02:07:29;19.70;;;17.65;;
10114;SDS011;5097;43.260;27.812;2023-08-06T02:10:14;22.25;;;17.45;;
10114;SDS011;5097;43.260;27.812;2023-08-06T02:12:59;20.17;;;17.38;;
10114;SDS011;5097;43.260;27.812;2023-08-06T02:15:43;19.45;;;17.55;;
10114;SDS011;5097;43.260;27.812;2023-08-06T02:18:30;20.75;;;17.52;;
10114;SDS011;5097;43.260;27.812;2023-08-06T02:21:14;30.33;;;24.83;;
10114;SDS011;5097;43.260;27.812;2023-08-06T02:23:58;31.92;;;24.08;;
10114;SDS011;5097;43.260;27.812;2023-08-06T02:26:46;29.60;;;22.45;;
10114;SDS011;5097;43.260;27.812;2023-08-06T02:29:31;21.02;;;18.50;;
10114;SDS011;5097;43.260;27.812;2023-08-06T02:32:15;19.90;;;18.00;;
10114;SDS011;5097;43.260;27.812;2023-08-06T02:34:59;20.35;;;17.98;;
10114;SDS011;5097;43.260;27.812;2023-08-06T02:37:44;18.00;;;16.38;;
10114;SDS011;5097;43.260;27.812;2023-08-06T02:40:28;19.90;;;17.73;;
10114;SDS011;5097;43.260;27.812;2023-08-06T02:43:14;20.25;;;17.52;;
10114;SDS011;5097;43.260;27.812;2023-08-06T02:45:58;18.08;;;16.08;;
10114;SDS011;5097;43.260;27.812;2023-08-06T02:48:43;17.40;;;15.48;;
10114;SDS011;5097;43.260;27.812;2023-08-06T02:51:27;17.63;;;15.95;;
10114;SDS011;5097;43.260;27.812;2023-08-06T02:54:11;17.45;;;15.70;;
10114;SDS011;5097;43.260;27.812;2023-08-06T02:56:56;18.15;;;16.27;;
10114;SDS011;5097;43.260;27.812;2023-08-06T02:59:45;17.73;;;15.85;;
10114;SDS011;5097;43.260;27.812;2023-08-06T03:02:33;20.90;;;16.20;;
10114;SDS011;5097;43.260;27.812;2023-08-06T03:05:32;17.63;;;15.75;;
10114;SDS011;5097;43.260;27.812;2023-08-06T03:08:17;17.83;;;15.95;;
10114;SDS011;5097;43.260;27.812;2023-08-06T03:11:06;17.33;;;15.57;;
10114;SDS011;5097;43.260;27.812;2023-08-06T03:13:50;19.55;;;15.40;;
10114;SDS011;5097;43.260;27.812;2023-08-06T03:16:35;18.35;;;15.48;;
10114;SDS011;5097;43.260;27.812;2023-08-06T03:19:20;16.80;;;14.95;;
10114;SDS011;5097;43.260;27.812;2023-08-06T03:22:04;17.52;;;14.23;;
10114;SDS011;5097;43.260;27.812;2023-08-06T03:24:50;16.63;;;14.70;;
10114;SDS011;5097;43.260;27.812;2023-08-06T03:27:37;20.30;;;15.13;;
10114;SDS011;5097;43.260;27.812;2023-08-06T03:30:22;15.90;;;14.30;;
10114;SDS011;5097;43.260;27.812;2023-08-06T03:33:10;15.38;;;14.05;;
10114;SDS011;5097;43.260;27.812;2023-08-06T03:35:54;19.52;;;15.27;;
10114;SDS011;5097;43.260;27.812;2023-08-06T03:38:39;15.75;;;14.23;;
10114;SDS011;5097;43.260;27.812;2023-08-06T03:41:24;16.35;;;14.65;;
10114;SDS011;5097;43.260;27.812;2023-08-06T03:44:08;15.02;;;13.35;;
10114;SDS011;5097;43.260;27.812;2023-08-06T03:46:52;16.25;;;14.60;;
10114;SDS011;5097;43.260;27.812;2023-08-06T03:49:38;13.32;;;12.10;;
10114;SDS011;5097;43.260;27.812;2023-08-06T03:52:23;14.23;;;12.80;;
10114;SDS011;5097;43.260;27.812;2023-08-06T03:55:07;24.48;;;19.70;;
10114;SDS011;5097;43.260;27.812;2023-08-06T03:57:51;75.35;;;59.95;;
10114;SDS011;5097;43.260;27.812;2023-08-06T04:00:36;44.13;;;32.75;;
10114;SDS011;5097;43.260;27.812;2023-08-06T04:03:21;33.83;;;25.38;;
10114;SDS011;5097;43.260;27.812;2023-08-06T04:06:07;32.15;;;20.25;;
10114;SDS011;5097;43.260;27.812;2023-08-06T04:08:51;21.33;;;15.13;;
10114;SDS011;5097;43.260;27.812;2023-08-06T04:11:35;17.45;;;15.15;;
10114;SDS011;5097;43.260;27.812;2023-08-06T04:14:19;15.10;;;13.48;;
10114;SDS011;5097;43.260;27.812;2023-08-06T04:17:03;18.35;;;13.98;;
10114;SDS011;5097;43.260;27.812;2023-08-06T04:19:48;14.00;;;12.52;;
10114;SDS011;5097;43.260;27.812;2023-08-06T04:22:35;13.40;;;12.18;;
10114;SDS011;5097;43.260;27.812;2023-08-06T04:25:19;15.00;;;13.15;;
10114;SDS011;5097;43.260;27.812;2023-08-06T04:28:03;15.18;;;12.55;;
10114;SDS011;5097;43.260;27.812;2023-08-06T04:30:47;17.17;;;13.63;;
10114;SDS011;5097;43.260;27.812;2023-08-06T04:33:32;17.60;;;12.82;;
10114;SDS011;5097;43.260;27.812;2023-08-06T04:36:21;16.25;;;13.02;;
10114;SDS011;5097;43.260;27.812;2023-08-06T04:39:07;18.15;;;13.10;;
10114;SDS011;5097;43.260;27.812;2023-08-06T04:41:50;18.48;;;12.93;;
10114;SDS011;5097;43.260;27.812;2023-08-06T04:44:35;15.10;;;13.00;;
10114;SDS011;5097;43.260;27.812;2023-08-06T04:47:19;17.92;;;13.40;;
10114;SDS011;5097;43.260;27.812;2023-08-06T04:50:04;16.75;;;11.95;;
10114;SDS011;5097;43.260;27.812;2023-08-06T04:52:49;16.67;;;13.93;;
10114;SDS011;5097;43.260;27.812;2023-08-06T04:55:34;16.88;;;13.02;;
10114;SDS011;5097;43.260;27.812;2023-08-06T04:58:18;15.40;;;12.27;;
10114;SDS011;5097;43.260;27.812;2023-08-06T05:01:02;18.38;;;12.75;;
10114;SDS011;5097;43.260;27.812;2023-08-06T05:03:46;19.30;;;13.02;;
10114;SDS011;5097;43.260;27.812;2023-08-06T05:06:30;14.18;;;12.20;;
10114;SDS011;5097;43.260;27.812;2023-08-06T05:09:14;12.20;;;11.00;;
10114;SDS011;5097;43.260;27.812;2023-08-06T05:12:01;18.50;;;11.13;;
10114;SDS011;5097;43.260;27.812;2023-08-06T05:14:45;11.35;;;10.05;;
10114;SDS011;5097;43.260;27.812;2023-08-06T05:17:29;11.85;;;10.20;;
10114;SDS011;5097;43.260;27.812;2023-08-06T05:20:13;11.23;;;10.15;;
10114;SDS011;5097;43.260;27.812;2023-08-06T05:22:58;10.55;;;9.45;;
10114;SDS011;5097;43.260;27.812;2023-08-06T05:25:41;14.15;;;9.27;;
10114;SDS011;5097;43.260;27.812;2023-08-06T05:28:27;14.70;;;9.32;;
10114;SDS011;5097;43.260;27.812;2023-08-06T05:31:11;13.60;;;9.32;;
10114;SDS011;5097;43.260;27.812;2023-08-06T05:33:55;12.25;;;10.00;;
10114;SDS011;5097;43.260;27.812;2023-08-06T05:36:39;11.15;;;9.13;;
10114;SDS011;5097;43.260;27.812;2023-08-06T05:39:23;13.52;;;9.48;;
10114;SDS011;5097;43.260;27.812;2023-08-06T05:42:07;13.80;;;9.18;;
10114;SDS011;5097;43.260;27.812;2023-08-06T05:44:52;11.45;;;9.02;;
10114;SDS011;5097;43.260;27.812;2023-08-06T05:47:36;10.30;;;8.63;;
10114;SDS011;5097;43.260;27.812;2023-08-06T05:50:20;11.15;;;8.80;;
10114;SDS011;5097;43.260;27.812;2023-08-06T05:53:04;11.35;;;9.32;;
10114;SDS011;5097;43.260;27.812;2023-08-06T05:55:48;14.02;;;9.45;;
10114;SDS011;5097;43.260;27.812;2023-08-06T05:58:32;10.38;;;9.02;;
10114;SDS011;5097;43.260;27.812;2023-08-06T06:01:18;12.02;;;8.68;;
10114;SDS011;5097;43.260;27.812;2023-08-06T06:04:02;10.43;;;9.00;;
10114;SDS011;5097;43.260;27.812;2023-08-06T06:06:47;11.10;;;9.00;;
10114;SDS011;5097;43.260;27.812;2023-08-06T06:09:31;9.77;;;8.77;;
10114;SDS011;5097;43.260;27.812;2023-08-06T06:12:15;9.10;;;8.07;;
10114;SDS011;5097;43.260;27.812;2023-08-06T06:14:59;9.07;;;8.18;;
10114;SDS011;5097;43.260;27.812;2023-08-06T06:17:47;10.80;;;7.95;;
10114;SDS011;5097;43.260;27.812;2023-08-06T06:20:31;10.77;;;7.78;;
10114;SDS011;5097;43.260;27.812;2023-08-06T06:23:15;8.95;;;7.68;;
10114;SDS011;5097;43.260;27.812;2023-08-06T06:25:59;8.48;;;6.90;;
10114;SDS011;5097;43.260;27.812;2023-08-06T06:28:43;10.65;;;7.78;;
10114;SDS011;5097;43.260;27.812;2023-08-06T06:31:27;7.53;;;6.78;;
10114;SDS011;5097;43.260;27.812;2023-08-06T06:34:13;9.15;;;7.25;;
10114;SDS011;5097;43.260;27.812;2023-08-06T06:36:57;10.65;;;7.80;;
10114;SDS011;5097;43.260;27.812;2023-08-06T06:39:41;7.30;;;6.60;;
10114;SDS011;5097;43.260;27.812;2023-08-06T06:42:26;8.57;;;6.55;;
10114;SDS011;5097;43.260;27.812;2023-08-06T06:45:14;7.57;;;6.55;;
10114;SDS011;5097;43.260;27.812;2023-08-06T06:47:58;9.20;;;6.55;;
10114;SDS011;5097;43.260;27.812;2023-08-06T06:50:46;8.20;;;6.25;;
10114;SDS011;5097;43.260;27.812;2023-08-06T06:53:30;8.02;;;6.00;;
10114;SDS011;5097;43.260;27.812;2023-08-06T06:56:14;8.77;;;6.70;;
10114;SDS011;5097;43.260;27.812;2023-08-06T06:58:58;10.75;;;6.85;;
10114;SDS011;5097;43.260;27.812;2023-08-06T07:01:42;8.15;;;6.10;;
10114;SDS011;5097;43.260;27.812;2023-08-06T07:04:26;10.13;;;8.07;;
10114;SDS011;5097;43.260;27.812;2023-08-06T07:07:12;7.60;;;6.53;;
10114;SDS011;5097;43.260;27.812;2023-08-06T07:09:55;8.95;;;6.70;;
10114;SDS011;5097;43.260;27.812;2023-08-06T07:12:40;10.13;;;6.47;;
10114;SDS011;5097;43.260;27.812;2023-08-06T07:15:23;8.60;;;6.45;;
10114;SDS011;5097;43.260;27.812;2023-08-06T07:18:07;10.23;;;7.35;;
10114;SDS011;5097;43.260;27.812;2023-08-06T07:20:52;9.77;;;6.25;;
10114;SDS011;5097;43.260;27.812;2023-08-06T07:23:39;7.80;;;6.15;;
10114;SDS011;5097;43.260;27.812;2023-08-06T07:26:22;7.22;;;6.53;;
10114;SDS011;5097;43.260;27.812;2023-08-06T07:29:07;6.75;;;6.15;;
10114;SDS011;5097;43.260;27.812;2023-08-06T07:31:51;14.68;;;6.32;;
10114;SDS011;5097;43.260;27.812;2023-08-06T07:34:35;7.38;;;6.70;;
10114;SDS011;5097;43.260;27.812;2023-08-06T07:37:19;10.77;;;6.10;;
10114;SDS011;5097;43.260;27.812;2023-08-06T07:40:04;7.13;;;6.43;;
10114;SDS011;5097;43.260;27.812;2023-08-06T07:42:49;6.25;;;5.35;;
10114;SDS011;5097;43.260;27.812;2023-08-06T07:45:33;9.52;;;6.03;;
10114;SDS011;5097;43.260;27.812;2023-08-06T07:48:18;8.23;;;5.82;;
10114;SDS011;5097;43.260;27.812;2023-08-06T07:51:02;10.05;;;5.93;;
10114;SDS011;5097;43.260;27.812;2023-08-06T07:53:46;12.07;;;5.53;;
10114;SDS011;5097;43.260;27.812;2023-08-06T07:56:31;7.10;;;5.70;;
10114;SDS011;5097;43.260;27.812;2023-08-06T07:59:15;6.90;;;6.07;;
10114;SDS011;5097;43.260;27.812;2023-08-06T08:01:59;10.18;;;6.28;;
10114;SDS011;5097;43.260;27.812;2023-08-06T08:04:44;7.47;;;5.82;;
10114;SDS011;5097;43.260;27.812;2023-08-06T08:07:29;7.47;;;6.75;;
10114;SDS011;5097;43.260;27.812;2023-08-06T08:10:13;11.30;;;6.57;;
10114;SDS011;5097;43.260;27.812;2023-08-06T08:12:59;10.93;;;6.43;;
10114;SDS011;5097;43.260;27.812;2023-08-06T08:15:43;7.88;;;5.82;;
10114;SDS011;5097;43.260;27.812;2023-08-06T08:18:28;7.65;;;5.53;;
10114;SDS011;5097;43.260;27.812;2023-08-06T08:21:13;8.10;;;6.20;;
10114;SDS011;5097;43.260;27.812;2023-08-06T08:23:59;9.63;;;6.32;;
10114;SDS011;5097;43.260;27.812;2023-08-06T08:26:43;6.55;;;5.60;;
10114;SDS011;5097;43.260;27.812;2023-08-06T08:29:29;6.00;;;5.40;;
10114;SDS011;5097;43.260;27.812;2023-08-06T08:32:13;9.65;;;6.57;;
10114;SDS011;5097;43.260;27.812;2023-08-06T08:34:57;6.72;;;5.50;;
10114;SDS011;5097;43.260;27.812;2023-08-06T08:37:41;7.63;;;5.57;;
10114;SDS011;5097;43.260;27.812;2023-08-06T08:40:27;7.88;;;5.82;;
10114;SDS011;5097;43.260;27.812;2023-08-06T08:43:15;7.40;;;6.13;;
10114;SDS011;5097;43.260;27.812;2023-08-06T08:46:01;8.88;;;6.03;;
10114;SDS011;5097;43.260;27.812;2023-08-06T08:48:47;6.93;;;5.85;;
10114;SDS011;5097;43.260;27.812;2023-08-06T08:51:31;8.98;;;4.82;;
10114;SDS011;5097;43.260;27.812;2023-08-06T08:54:16;7.20;;;5.70;;
10114;SDS011;5097;43.260;27.812;2023-08-06T08:57:01;6.60;;;6.00;;
10114;SDS011;5097;43.260;27.812;2023-08-06T08:59:46;9.40;;;5.63;;
10114;SDS011;5097;43.260;27.812;2023-08-06T09:02:32;7.07;;;5.30;;
10114;SDS011;5097;43.260;27.812;2023-08-06T09:05:17;7.38;;;5.85;;
10114;SDS011;5097;43.260;27.812;2023-08-06T09:08:03;7.72;;;5.38;;
10114;SDS011;5097;43.260;27.812;2023-08-06T09:10:48;7.72;;;6.03;;
10114;SDS011;5097;43.260;27.812;2023-08-06T09:13:35;8.50;;;5.45;;
10114;SDS011;5097;43.260;27.812;2023-08-06T09:16:20;6.38;;;5.68;;
10114;SDS011;5097;43.260;27.812;2023-08-06T09:19:08;5.95;;;5.30;;
10114;SDS011;5097;43.260;27.812;2023-08-06T09:21:55;8.60;;;6.70;;
10114;SDS011;5097;43.260;27.812;2023-08-06T09:24:40;9.25;;;5.85;;
10114;SDS011;5097;43.260;27.812;2023-08-06T09:27:25;7.30;;;5.40;;
10114;SDS011;5097;43.260;27.812;2023-08-06T09:30:10;6.40;;;5.45;;
10114;SDS011;5097;43.260;27.812;2023-08-06T09:32:53;8.65;;;5.63;;
10114;SDS011;5097;43.260;27.812;2023-08-06T09:35:39;12.50;;;6.47;;
10114;SDS011;5097;43.260;27.812;2023-08-06T09:38:23;7.90;;;5.78;;
10114;SDS011;5097;43.260;27.812;2023-08-06T09:41:08;9.05;;;6.63;;
10114;SDS011;5097;43.260;27.812;2023-08-06T09:43:52;10.38;;;6.10;;
10114;SDS011;5097;43.260;27.812;2023-08-06T09:46:36;7.57;;;6.10;;
10114;SDS011;5097;43.260;27.812;2023-08-06T09:49:20;7.22;;;5.40;;
10114;SDS011;5097;43.260;27.812;2023-08-06T09:52:07;10.15;;;5.60;;
10114;SDS011;5097;43.260;27.812;2023-08-06T09:54:54;9.48;;;5.63;;
10114;SDS011;5097;43.260;27.812;2023-08-06T09:57:38;7.53;;;5.80;;
10114;SDS011;5097;43.260;27.812;2023-08-06T10:00:23;7.55;;;5.60;;
10114;SDS011;5097;43.260;27.812;2023-08-06T10:03:08;9.15;;;5.93;;
10114;SDS011;5097;43.260;27.812;2023-08-06T10:05:56;9.00;;;5.65;;
10114;SDS011;5097;43.260;27.812;2023-08-06T10:08:42;11.68;;;6.13;;
10114;SDS011;5097;43.260;27.812;2023-08-06T10:11:26;6.85;;;4.78;;
10114;SDS011;5097;43.260;27.812;2023-08-06T10:14:12;6.05;;;5.45;;
10114;SDS011;5097;43.260;27.812;2023-08-06T10:16:59;6.63;;;5.70;;
10114;SDS011;5097;43.260;27.812;2023-08-06T10:19:45;6.30;;;5.70;;
10114;SDS011;5097;43.260;27.812;2023-08-06T10:22:30;10.50;;;5.75;;
10114;SDS011;5097;43.260;27.812;2023-08-06T10:25:18;12.23;;;6.05;;
10114;SDS011;5097;43.260;27.812;2023-08-06T10:28:06;6.60;;;5.93;;
10114;SDS011;5097;43.260;27.812;2023-08-06T10:30:52;8.07;;;5.78;;
10114;SDS011;5097;43.260;27.812;2023-08-06T10:33:42;7.13;;;5.40;;
10114;SDS011;5097;43.260;27.812;2023-08-06T10:36:27;6.57;;;5.70;;
10114;SDS011;5097;43.260;27.812;2023-08-06T10:39:13;7.85;;;5.30;;
10114;SDS011;5097;43.260;27.812;2023-08-06T10:42:20;7.78;;;5.30;;
10114;SDS011;5097;43.260;27.812;2023-08-06T10:45:11;7.40;;;5.38;;
10114;SDS011;5097;43.260;27.812;2023-08-06T10:47:56;8.38;;;6.18;;
10114;SDS011;5097;43.260;27.812;2023-08-06T10:50:41;6.70;;;5.30;;
10114;SDS011;5097;43.260;27.812;2023-08-06T10:53:25;10.77;;;5.43;;
10114;SDS011;5097;43.260;27.812;2023-08-06T10:56:13;7.25;;;5.53;;
10114;SDS011;5097;43.260;27.812;2023-08-06T10:59:00;6.32;;;4.88;;
10114;SDS011;5097;43.260;27.812;2023-08-06T11:01:43;8.18;;;5.63;;
10114;SDS011;5097;43.260;27.812;2023-08-06T11:04:30;6.30;;;5.25;;
10114;SDS011;5097;43.260;27.812;2023-08-06T11:07:14;7.47;;;5.35;;
10114;SDS011;5097;43.260;27.812;2023-08-06T11:10:02;7.78;;;5.80;;
10114;SDS011;5097;43.260;27.812;2023-08-06T11:12:47;6.57;;;5.90;;
10114;SDS011;5097;43.260;27.812;2023-08-06T11:15:32;6.22;;;5.63;;
10114;SDS011;5097;43.260;27.812;2023-08-06T11:18:16;8.60;;;5.43;;
10114;SDS011;5097;43.260;27.812;2023-08-06T11:21:01;9.35;;;5.68;;
10114;SDS011;5097;43.260;27.812;2023-08-06T11:23:45;10.50;;;6.22;;
10114;SDS011;5097;43.260;27.812;2023-08-06T11:26:29;9.18;;;5.90;;
10114;SDS011;5097;43.260;27.812;2023-08-06T11:29:14;9.15;;;5.68;;
10114;SDS011;5097;43.260;27.812;2023-08-06T11:32:04;6.75;;;5.78;;
10114;SDS011;5097;43.260;27.812;2023-08-06T11:34:48;11.38;;;5.88;;
10114;SDS011;5097;43.260;27.812;2023-08-06T11:37:33;6.72;;;5.60;;
10114;SDS011;5097;43.260;27.812;2023-08-06T11:40:17;7.40;;;5.20;;
10114;SDS011;5097;43.260;27.812;2023-08-06T11:43:01;8.70;;;6.03;;
10114;SDS011;5097;43.260;27.812;2023-08-06T11:45:46;6.82;;;6.13;;
10114;SDS011;5097;43.260;27.812;2023-08-06T11:48:31;7.45;;;5.88;;
10114;SDS011;5097;43.260;27.812;2023-08-06T11:51:15;7.68;;;5.95;;
10114;SDS011;5097;43.260;27.812;2023-08-06T11:53:59;8.50;;;6.30;;
10114;SDS011;5097;43.260;27.812;2023-08-06T11:56:44;8.07;;;6.65;;
10114;SDS011;5097;43.260;27.812;2023-08-06T11:59:29;27.77;;;5.10;;
10114;SDS011;5097;43.260;27.812;2023-08-06T12:02:13;26.92;;;6.85;;
10114;SDS011;5097;43.260;27.812;2023-08-06T12:05:00;12.85;;;6.82;;
10114;SDS011;5097;43.260;27.812;2023-08-06T12:07:46;11.02;;;6.28;;
10114;SDS011;5097;43.260;27.812;2023-08-06T12:10:32;7.93;;;6.72;;
10114;SDS011;5097;43.260;27.812;2023-08-06T12:13:16;10.45;;;6.15;;
10114;SDS011;5097;43.260;27.812;2023-08-06T12:16:00;9.38;;;6.53;;
10114;SDS011;5097;43.260;27.812;2023-08-06T12:18:44;12.32;;;6.00;;
10114;SDS011;5097;43.260;27.812;2023-08-06T12:21:29;8.07;;;6.72;;
10114;SDS011;5097;43.260;27.812;2023-08-06T12:24:13;8.85;;;5.53;;
10114;SDS011;5097;43.260;27.812;2023-08-06T12:26:57;7.57;;;5.07;;
10114;SDS011;5097;43.260;27.812;2023-08-06T12:29:41;6.57;;;5.90;;
10114;SDS011;5097;43.260;27.812;2023-08-06T12:32:26;9.23;;;5.65;;
10114;SDS011;5097;43.260;27.812;2023-08-06T12:35:10;8.35;;;4.97;;
10114;SDS011;5097;43.260;27.812;2023-08-06T12:37:57;9.20;;;5.35;;
10114;SDS011;5097;43.260;27.812;2023-08-06T12:40:41;4.97;;;4.45;;
10114;SDS011;5097;43.260;27.812;2023-08-06T12:43:25;5.68;;;4.03;;
10114;SDS011;5097;43.260;27.812;2023-08-06T12:46:09;7.20;;;4.18;;
10114;SDS011;5097;43.260;27.812;2023-08-06T12:48:54;5.30;;;4.22;;
10114;SDS011;5097;43.260;27.812;2023-08-06T12:51:39;7.20;;;5.30;;
10114;SDS011;5097;43.260;27.812;2023-08-06T12:54:24;5.30;;;4.20;;
10114;SDS011;5097;43.260;27.812;2023-08-06T12:57:09;4.57;;;4.10;;
10114;SDS011;5097;43.260;27.812;2023-08-06T12:59:53;4.50;;;4.10;;
10114;SDS011;5097;43.260;27.812;2023-08-06T13:02:37;3.75;;;3.35;;
10114;SDS011;5097;43.260;27.812;2023-08-06T13:05:21;4.53;;;3.95;;
10114;SDS011;5097;43.260;27.812;2023-08-06T13:08:05;5.82;;;3.65;;
10114;SDS011;5097;43.260;27.812;2023-08-06T13:10:50;5.18;;;3.65;;
10114;SDS011;5097;43.260;27.812;2023-08-06T13:13:34;3.88;;;3.58;;
10114;SDS011;5097;43.260;27.812;2023-08-06T13:16:18;4.65;;;4.25;;
10114;SDS011;5097;43.260;27.812;2023-08-06T13:19:02;5.07;;;4.38;;
10114;SDS011;5097;43.260;27.812;2023-08-06T13:24:52;4.18;;;3.88;;
10114;SDS011;5097;43.260;27.812;2023-08-06T13:27:37;3.60;;;3.40;;
10114;SDS011;5097;43.260;27.812;2023-08-06T13:30:21;3.97;;;3.65;;
10114;SDS011;5097;43.260;27.812;2023-08-06T13:33:05;3.67;;;2.92;;
10114;SDS011;5097;43.260;27.812;2023-08-06T13:35:49;3.75;;;3.45;;
10114;SDS011;5097;43.260;27.812;2023-08-06T13:38:33;3.50;;;3.20;;
10114;SDS011;5097;43.260;27.812;2023-08-06T13:41:18;4.05;;;3.42;;
10114;SDS011;5097;43.260;27.812;2023-08-06T13:44:03;4.03;;;3.65;;
10114;SDS011;5097;43.260;27.812;2023-08-06T13:46:47;4.57;;;3.40;;
10114;SDS011;5097;43.260;27.812;2023-08-06T13:49:31;4.15;;;3.85;;
10114;SDS011;5097;43.260;27.812;2023-08-06T13:52:15;3.80;;;3.50;;
10114;SDS011;5097;43.260;27.812;2023-08-06T13:55:04;3.70;;;3.50;;
10114;SDS011;5097;43.260;27.812;2023-08-06T13:57:48;4.15;;;3.67;;
10114;SDS011;5097;43.260;27.812;2023-08-06T14:00:35;3.75;;;3.45;;
10114;SDS011;5097;43.260;27.812;2023-08-06T14:03:19;4.60;;;3.80;;
10114;SDS011;5097;43.260;27.812;2023-08-06T14:06:03;4.35;;;3.95;;
10114;SDS011;5097;43.260;27.812;2023-08-06T14:08:47;4.65;;;3.80;;
10114;SDS011;5097;43.260;27.812;2023-08-06T14:11:31;3.83;;;3.50;;
10114;SDS011;5097;43.260;27.812;2023-08-06T14:14:15;3.33;;;3.13;;
10114;SDS011;5097;43.260;27.812;2023-08-06T14:17:00;3.90;;;3.60;;
10114;SDS011;5097;43.260;27.812;2023-08-06T14:19:45;6.38;;;4.65;;
10114;SDS011;5097;43.260;27.812;2023-08-06T14:22:28;6.28;;;3.83;;
10114;SDS011;5097;43.260;27.812;2023-08-06T14:25:13;4.13;;;3.70;;
10114;SDS011;5097;43.260;27.812;2023-08-06T14:27:57;6.97;;;3.20;;
10114;SDS011;5097;43.260;27.812;2023-08-06T14:30:41;3.47;;;3.17;;
10114;SDS011;5097;43.260;27.812;2023-08-06T14:33:26;4.57;;;3.60;;
10114;SDS011;5097;43.260;27.812;2023-08-06T14:36:10;6.13;;;3.47;;
10114;SDS011;5097;43.260;27.812;2023-08-06T14:38:54;3.60;;;3.38;;
10114;SDS011;5097;43.260;27.812;2023-08-06T14:41:41;5.20;;;3.53;;
10114;SDS011;5097;43.260;27.812;2023-08-06T14:44:25;4.35;;;3.60;;
10114;SDS011;5097;43.260;27.812;2023-08-06T14:47:10;5.38;;;4.18;;
10114;SDS011;5097;43.260;27.812;2023-08-06T14:49:55;4.30;;;3.88;;
10114;SDS011;5097;43.260;27.812;2023-08-06T14:52:40;4.53;;;3.97;;
10114;SDS011;5097;43.260;27.812;2023-08-06T14:55:24;5.68;;;3.97;;
10114;SDS011;5097;43.260;27.812;2023-08-06T14:58:08;4.93;;;4.45;;
10114;SDS011;5097;43.260;27.812;2023-08-06T15:00:52;5.88;;;5.28;;
10114;SDS011;5097;43.260;27.812;2023-08-06T15:03:36;6.50;;;5.90;;
10114;SDS011;5097;43.260;27.812;2023-08-06T15:06:22;7.38;;;6.53;;
10114;SDS011;5097;43.260;27.812;2023-08-06T15:09:06;22.65;;;17.38;;
10114;SDS011;5097;43.260;27.812;2023-08-06T15:11:50;16.33;;;13.88;;
10114;SDS011;5097;43.260;27.812;2023-08-06T15:14:34;11.63;;;10.20;;
10114;SDS011;5097;43.260;27.812;2023-08-06T15:17:18;18.35;;;16.48;;
10114;SDS011;5097;43.260;27.812;2023-08-06T15:20:02;7.65;;;6.90;;
10114;SDS011;5097;43.260;27.812;2023-08-06T15:22:49;7.88;;;7.18;;
10114;SDS011;5097;43.260;27.812;2023-08-06T15:25:33;7.70;;;6.82;;
10114;SDS011;5097;43.260;27.812;2023-08-06T15:28:17;7.63;;;6.93;;
10114;SDS011;5097;43.260;27.812;2023-08-06T15:31:01;9.80;;;6.40;;
10114;SDS011;5097;43.260;27.812;2023-08-06T15:33:46;10.50;;;6.65;;
10114;SDS011;5097;43.260;27.812;2023-08-06T15:36:30;5.72;;;5.32;;
10114;SDS011;5097;43.260;27.812;2023-08-06T15:39:17;6.43;;;5.70;;
10114;SDS011;5097;43.260;27.812;2023-08-06T15:42:01;6.07;;;5.57;;
10114;SDS011;5097;43.260;27.812;2023-08-06T15:44:45;6.65;;;6.05;;
10114;SDS011;5097;43.260;27.812;2023-08-06T15:47:30;6.10;;;5.53;;
10114;SDS011;5097;43.260;27.812;2023-08-06T15:50:14;5.32;;;4.80;;
10114;SDS011;5097;43.260;27.812;2023-08-06T15:52:58;6.10;;;5.45;;
10114;SDS011;5097;43.260;27.812;2023-08-06T15:55:43;6.57;;;5.20;;
10114;SDS011;5097;43.260;27.812;2023-08-06T15:58:29;6.40;;;5.53;;
10114;SDS011;5097;43.260;27.812;2023-08-06T16:01:14;5.80;;;5.30;;
10114;SDS011;5097;43.260;27.812;2023-08-06T16:03:58;5.85;;;5.43;;
10114;SDS011;5097;43.260;27.812;2023-08-06T16:06:42;6.57;;;5.97;;
10114;SDS011;5097;43.260;27.812;2023-08-06T16:09:26;7.10;;;5.55;;
10114;SDS011;5097;43.260;27.812;2023-08-06T16:12:11;8.30;;;5.75;;
10114;SDS011;5097;43.260;27.812;2023-08-06T16:14:57;5.78;;;5.28;;
10114;SDS011;5097;43.260;27.812;2023-08-06T16:17:41;6.75;;;6.03;;
10114;SDS011;5097;43.260;27.812;2023-08-06T16:20:25;6.00;;;5.50;;
10114;SDS011;5097;43.260;27.812;2023-08-06T16:23:09;6.28;;;5.70;;